createdAt,value
2018-06-22T00:01:46.540Z,58.26
2018-06-22T00:04:15.129Z,58.54
2018-06-22T00:06:43.725Z,58.44
2018-06-22T00:09:12.298Z,59.05
2018-06-22T00:11:40.819Z,59.32
2018-06-22T00:14:09.339Z,58.68
2018-06-22T00:16:38.118Z,58.45
2018-06-22T00:19:06.552Z,58.65
2018-06-22T00:21:35.210Z,58.69
2018-06-22T00:24:03.683Z,59.32
2018-06-22T00:26:32.082Z,59.65
2018-06-22T00:29:00.736Z,59.79
2018-06-22T00:31:29.265Z,59.67
2018-06-22T00:33:57.635Z,60.04
2018-06-22T00:36:26.260Z,60.11
2018-06-22T00:38:55.413Z,60.83
2018-06-22T00:41:24.082Z,61.05
2018-06-22T00:43:52.865Z,60.50
2018-06-22T00:46:21.479Z,61.07
2018-06-22T00:48:50.157Z,61.05
2018-06-22T00:51:18.796Z,61.19
2018-06-22T00:54:04.403Z,61.25
2018-06-22T00:56:32.888Z,61.00
2018-06-22T00:59:01.526Z,61.76
2018-06-22T01:01:29.782Z,61.31
2018-06-22T01:03:58.177Z,61.46
2018-06-22T01:06:26.660Z,62.06
2018-06-22T01:08:55.111Z,62.00
2018-06-22T01:11:23.875Z,61.66
2018-06-22T01:13:52.396Z,62.00
2018-06-22T01:16:21.364Z,62.53
2018-06-22T01:18:49.808Z,61.73
2018-06-22T01:21:18.851Z,61.97
2018-06-22T01:23:47.622Z,61.91
2018-06-22T01:26:16.149Z,61.86
2018-06-22T01:28:44.428Z,61.91
2018-06-22T01:31:12.891Z,62.12
2018-06-22T01:33:41.272Z,62.66
2018-06-22T01:36:09.870Z,62.11
2018-06-22T01:38:38.504Z,61.62
2018-06-22T01:41:07.271Z,61.51
2018-06-22T01:43:36.697Z,61.38
2018-06-22T01:46:05.392Z,61.58
2018-06-22T01:48:33.873Z,62.44
2018-06-22T01:51:02.273Z,61.71
2018-06-22T01:53:31.048Z,61.23
2018-06-22T01:55:59.712Z,61.08
2018-06-22T01:58:28.212Z,61.35
2018-06-22T02:00:56.830Z,61.89
2018-06-22T02:03:25.274Z,60.66
2018-06-22T02:05:54.002Z,61.67
2018-06-22T02:08:22.532Z,61.05
2018-06-22T02:10:50.976Z,60.70
2018-06-22T02:13:19.665Z,60.98
2018-06-22T02:15:47.992Z,61.11
2018-06-22T02:18:16.397Z,61.33
2018-06-22T02:20:45.255Z,61.22
2018-06-22T02:23:13.811Z,61.10
2018-06-22T02:25:42.031Z,61.37
2018-06-22T02:28:10.667Z,61.47
2018-06-22T02:30:39.119Z,61.67
2018-06-22T02:33:07.726Z,61.44
2018-06-22T02:35:36.115Z,62.36
2018-06-22T02:38:05.252Z,61.47
2018-06-22T02:40:33.825Z,62.05
2018-06-22T02:43:02.296Z,61.58
2018-06-22T02:45:30.838Z,62.17
2018-06-22T02:47:59.526Z,62.01
2018-06-22T02:50:27.856Z,62.42
2018-06-22T02:52:56.351Z,62.52
2018-06-22T02:55:24.960Z,62.36
2018-06-22T02:57:53.465Z,61.94
2018-06-22T03:00:22.022Z,62.17
2018-06-22T03:02:50.667Z,62.13
2018-06-22T03:05:19.178Z,62.67
2018-06-22T03:07:47.598Z,62.60
2018-06-22T03:10:15.920Z,62.65
2018-06-22T03:12:44.489Z,62.36
2018-06-22T03:15:13.069Z,62.67
2018-06-22T03:17:41.573Z,62.98
2018-06-22T03:20:10.186Z,62.40
2018-06-22T03:22:38.636Z,62.61
2018-06-22T03:25:07.069Z,62.37
2018-06-22T03:27:35.299Z,62.54
2018-06-22T03:30:03.949Z,62.12
2018-06-22T03:32:32.432Z,61.99
2018-06-22T03:35:01.013Z,61.61
2018-06-22T03:37:29.929Z,62.04
2018-06-22T03:39:58.443Z,62.81
2018-06-22T03:42:27.046Z,62.06
2018-06-22T03:44:55.588Z,61.61
2018-06-22T03:47:24.101Z,62.35
2018-06-22T03:49:52.520Z,61.37
2018-06-22T03:52:20.984Z,61.13
2018-06-22T03:54:49.327Z,61.99
2018-06-22T03:57:17.851Z,61.48
2018-06-22T03:59:46.195Z,61.70
2018-06-22T04:02:14.766Z,60.80
2018-06-22T04:04:43.132Z,60.69
2018-06-22T04:07:11.599Z,60.81
2018-06-22T04:09:40.325Z,60.59
2018-06-22T04:12:08.832Z,60.69
2018-06-22T04:14:37.420Z,60.63
2018-06-22T04:17:05.856Z,60.69
2018-06-22T04:19:34.292Z,60.93
2018-06-22T04:22:02.665Z,60.67
2018-06-22T04:24:31.145Z,60.18
2018-06-22T04:26:59.527Z,61.25
2018-06-22T04:29:27.928Z,60.65
2018-06-22T04:31:56.282Z,60.91
2018-06-22T04:34:24.918Z,60.90
2018-06-22T04:36:53.640Z,61.19
2018-06-22T04:39:22.145Z,61.38
2018-06-22T04:41:50.614Z,60.66
2018-06-22T04:44:18.955Z,61.51
2018-06-22T04:46:47.451Z,60.64
2018-06-22T04:49:16.022Z,60.73
2018-06-22T04:51:44.780Z,60.62
2018-06-22T04:54:13.306Z,60.57
2018-06-22T04:56:41.778Z,60.36
2018-06-22T04:59:10.308Z,60.53
2018-06-22T05:01:38.944Z,61.01
2018-06-22T05:04:07.500Z,61.02
2018-06-22T05:06:36.293Z,61.74
2018-06-22T05:09:07.503Z,61.21
2018-06-22T05:11:36.021Z,61.03
2018-06-22T05:14:04.597Z,61.34
2018-06-22T05:16:33.151Z,62.07
2018-06-22T05:19:02.080Z,61.74
2018-06-22T05:21:30.621Z,61.98
2018-06-22T05:23:58.865Z,61.36
2018-06-22T05:26:27.816Z,61.73
2018-06-22T05:28:56.221Z,62.32
2018-06-22T05:31:25.286Z,61.83
2018-06-22T05:33:54.128Z,62.04
2018-06-22T05:36:22.770Z,62.41
2018-06-22T05:38:51.290Z,62.21
2018-06-22T05:41:19.784Z,61.24
2018-06-22T05:43:50.352Z,62.16
2018-06-22T05:46:33.463Z,61.87
2018-06-22T05:49:03.194Z,62.48
2018-06-22T05:51:31.681Z,62.25
2018-06-22T05:54:00.378Z,62.25
2018-06-22T05:56:28.995Z,61.23
2018-06-22T05:59:00.227Z,61.36
2018-06-22T06:01:29.221Z,61.82
2018-06-22T06:03:57.663Z,61.07
2018-06-22T06:06:29.036Z,61.57
2018-06-22T06:08:57.720Z,61.75
2018-06-22T06:11:26.145Z,61.95
2018-06-22T06:13:54.682Z,61.41
2018-06-22T06:16:23.184Z,62.38
2018-06-22T06:18:51.787Z,61.25
2018-06-22T06:21:20.410Z,61.78
2018-06-22T06:23:48.805Z,62.85
2018-06-22T06:26:17.334Z,62.97
2018-06-22T06:28:46.131Z,63.03
2018-06-22T06:31:14.665Z,61.81
2018-06-22T06:33:43.478Z,61.85
2018-06-22T06:36:11.875Z,61.50
2018-06-22T06:38:40.293Z,61.47
2018-06-22T06:41:09.120Z,61.96
2018-06-22T06:43:37.899Z,61.35
2018-06-22T06:46:06.424Z,61.76
2018-06-22T06:48:35.077Z,61.63
2018-06-22T06:51:03.663Z,61.70
2018-06-22T06:53:32.093Z,62.11
2018-06-22T06:56:00.843Z,61.13
2018-06-22T06:58:29.778Z,61.89
2018-06-22T07:00:58.124Z,61.59
2018-06-22T07:03:26.619Z,60.80
2018-06-22T07:05:55.265Z,61.57
2018-06-22T07:08:24.194Z,61.58
2018-06-22T07:10:52.864Z,61.66
2018-06-22T07:13:21.292Z,61.91
2018-06-22T07:15:49.721Z,61.32
2018-06-22T07:18:18.405Z,60.24
2018-06-22T07:20:47.216Z,60.35
2018-06-22T07:23:16.095Z,60.65
2018-06-22T07:25:45.027Z,59.34
2018-06-22T07:28:13.332Z,58.60
2018-06-22T07:30:42.092Z,58.66
2018-06-22T07:33:10.549Z,58.06
2018-06-22T07:35:38.932Z,59.75
2018-06-22T07:38:07.630Z,59.44
2018-06-22T07:40:36.216Z,57.80
2018-06-22T07:43:04.900Z,58.20
2018-06-22T07:45:33.177Z,58.33
2018-06-22T07:48:01.525Z,56.45
2018-06-22T07:50:29.890Z,56.64
2018-06-22T07:52:58.572Z,57.61
2018-06-22T07:55:27.122Z,57.56
2018-06-22T07:57:55.849Z,59.66
2018-06-22T08:00:24.295Z,60.31
2018-06-22T08:02:53.046Z,60.93
2018-06-22T08:05:21.438Z,61.17
2018-06-22T08:07:50.023Z,60.49
2018-06-22T08:10:18.559Z,59.46
2018-06-22T08:12:47.878Z,59.30
2018-06-22T08:15:16.873Z,60.67
2018-06-22T08:17:50.672Z,60.02
2018-06-22T08:20:28.404Z,59.65
2018-06-22T08:22:57.091Z,58.62
2018-06-22T08:25:25.680Z,57.72
2018-06-22T08:27:55.743Z,58.30
2018-06-22T08:30:29.953Z,57.69
2018-06-22T08:32:59.311Z,58.28
2018-06-22T08:35:29.389Z,57.54
2018-06-22T08:37:59.186Z,58.75
2018-06-22T08:40:31.640Z,59.27
2018-06-22T08:43:03.950Z,60.68
2018-06-22T08:45:33.681Z,61.45
2018-06-22T08:48:03.120Z,62.37
2018-06-22T08:50:36.824Z,63.62
2018-06-22T08:53:06.662Z,65.21
2018-06-22T08:55:35.236Z,63.85
2018-06-22T08:58:07.859Z,65.55
2018-06-22T09:00:37.921Z,64.66
2018-06-22T09:03:10.434Z,65.24
2018-06-22T09:05:40.905Z,65.20
2018-06-22T09:08:09.698Z,66.68
2018-06-22T09:10:38.306Z,67.14
2018-06-22T09:13:06.956Z,66.19
2018-06-22T09:15:37.777Z,65.89
2018-06-22T09:18:08.564Z,66.26
2018-06-22T09:20:37.906Z,66.85
2018-06-22T09:23:08.745Z,67.04
2018-06-22T09:25:40.074Z,67.21
2018-06-22T09:28:09.976Z,65.96
2018-06-22T09:30:38.686Z,65.02
2018-06-22T09:33:07.457Z,63.25
2018-06-22T09:35:43.985Z,62.93
2018-06-22T09:38:13.864Z,62.90
2018-06-22T09:40:42.908Z,63.23
2018-06-22T09:43:13.788Z,62.54
2018-06-22T09:45:42.760Z,62.59
2018-06-22T09:48:14.371Z,62.73
2018-06-22T09:50:46.617Z,62.46
2018-06-22T09:53:18.026Z,60.46
2018-06-22T09:55:46.532Z,59.96
2018-06-22T09:58:20.330Z,58.82
2018-06-22T10:00:52.511Z,58.10
2018-06-22T10:03:22.962Z,58.76
2018-06-22T10:05:52.100Z,58.93
2018-06-22T10:08:21.066Z,57.47
2018-06-22T10:10:53.817Z,57.56
2018-06-22T10:13:23.850Z,58.80
2018-06-22T10:16:05.805Z,59.46
2018-06-22T10:18:36.729Z,60.19
2018-06-22T10:21:08.467Z,61.32
2018-06-22T10:23:38.674Z,61.84
2018-06-22T10:26:09.931Z,61.60
2018-06-22T10:28:39.710Z,61.53
2018-06-22T10:31:11.232Z,61.31
2018-06-22T10:33:41.365Z,61.33
2018-06-22T10:36:11.297Z,60.72
2018-06-22T10:38:39.902Z,58.57
2018-06-22T10:41:08.774Z,58.50
2018-06-22T10:43:37.473Z,58.42
2018-06-22T10:46:10.117Z,59.62
2018-06-22T10:48:38.768Z,62.30
2018-06-22T10:51:07.558Z,65.06
2018-06-22T10:53:36.167Z,65.40
2018-06-22T10:56:11.941Z,64.87
2018-06-22T10:58:41.324Z,64.41
2018-06-22T11:01:12.259Z,64.46
2018-06-22T11:03:41.705Z,64.00
2018-06-22T11:06:11.118Z,64.10
2018-06-22T11:08:41.336Z,65.50
2018-06-22T11:11:09.815Z,65.59
2018-06-22T11:13:38.669Z,65.75
2018-06-22T11:16:07.226Z,64.89
2018-06-22T11:18:35.955Z,66.22
2018-06-22T11:21:05.120Z,65.98
2018-06-22T11:23:33.455Z,65.88
2018-06-22T11:26:02.158Z,64.71
2018-06-22T11:28:32.468Z,61.97
2018-06-22T11:31:01.970Z,63.34
2018-06-22T11:33:30.545Z,61.68
2018-06-22T11:35:59.672Z,62.36
2018-06-22T11:38:28.446Z,61.60
2018-06-22T11:40:57.259Z,59.89
2018-06-22T11:43:25.634Z,57.66
2018-06-22T11:45:55.141Z,58.11
2018-06-22T11:48:23.802Z,58.51
2018-06-22T11:50:52.275Z,58.54
2018-06-22T11:53:21.040Z,60.13
2018-06-22T11:55:49.854Z,62.68
2018-06-22T11:58:18.716Z,62.12
2018-06-22T12:00:47.568Z,61.71
2018-06-22T12:03:16.737Z,61.73
2018-06-22T12:05:45.676Z,61.44
2018-06-22T12:08:14.617Z,60.47
2018-06-22T12:10:43.267Z,59.76
2018-06-22T12:13:11.808Z,59.16
2018-06-22T12:15:40.231Z,58.97
2018-06-22T12:18:08.866Z,58.34
2018-06-22T12:20:37.557Z,59.11
2018-06-22T12:23:06.396Z,55.76
2018-06-22T12:25:35.216Z,56.42
2018-06-22T12:28:03.764Z,56.77
2018-06-22T12:30:33.994Z,56.28
2018-06-22T12:33:02.659Z,56.49
2018-06-22T12:35:31.405Z,55.22
2018-06-22T12:37:59.966Z,55.43
2018-06-22T12:40:28.528Z,55.73
2018-06-22T12:42:57.147Z,54.58
2018-06-22T12:45:26.180Z,54.57
2018-06-22T12:47:55.469Z,55.36
2018-06-22T12:50:24.455Z,55.77
2018-06-22T12:52:52.904Z,56.00
2018-06-22T12:55:21.368Z,56.24
2018-06-22T12:57:50.101Z,54.08
2018-06-22T13:00:18.654Z,52.15
2018-06-22T13:02:47.278Z,50.97
2018-06-22T13:05:15.951Z,50.64
2018-06-22T13:07:44.412Z,51.50
2018-06-22T13:10:13.001Z,51.61
2018-06-22T13:12:41.526Z,49.83
2018-06-22T13:15:10.092Z,51.68
2018-06-22T13:17:38.666Z,50.69
2018-06-22T13:20:07.336Z,48.62
2018-06-22T13:22:36.157Z,46.90
2018-06-22T13:25:04.955Z,46.88
2018-06-22T13:27:33.637Z,46.77
2018-06-22T13:30:02.165Z,45.95
2018-06-22T13:32:30.796Z,45.26
2018-06-22T13:34:59.346Z,46.01
2018-06-22T13:37:27.828Z,46.10
2018-06-22T13:39:56.894Z,43.66
2018-06-22T13:42:25.720Z,41.37
2018-06-22T13:44:55.424Z,40.85
2018-06-22T13:47:24.498Z,40.55
2018-06-22T13:49:53.557Z,41.34
2018-06-22T13:52:22.250Z,40.85
2018-06-22T13:54:50.803Z,40.83
2018-06-22T13:57:19.554Z,40.45
2018-06-22T13:59:48.202Z,40.82
2018-06-22T14:02:16.763Z,43.03
2018-06-22T14:04:51.162Z,43.43
2018-06-22T14:07:20.017Z,45.92
2018-06-22T14:09:48.702Z,45.98
2018-06-22T14:12:18.112Z,44.83
2018-06-22T14:14:46.746Z,45.36
2018-06-22T14:17:15.297Z,45.32
2018-06-22T14:19:44.014Z,45.08
2018-06-22T14:22:12.592Z,44.27
2018-06-22T14:24:41.323Z,44.38
2018-06-22T14:27:09.745Z,44.29
2018-06-22T14:29:38.422Z,45.05
2018-06-22T14:32:07.251Z,44.86
2018-06-22T14:34:35.982Z,45.61
2018-06-22T14:37:05.028Z,45.10
2018-06-22T14:39:33.505Z,45.13
2018-06-22T14:42:02.322Z,46.45
2018-06-22T14:44:30.898Z,46.85
2018-06-22T14:46:59.376Z,47.54
2018-06-22T14:49:27.842Z,47.36
2018-06-22T14:52:01.456Z,47.60
2018-06-22T14:54:35.892Z,47.66
2018-06-22T14:57:10.015Z,47.92
2018-06-22T14:59:44.311Z,45.69
2018-06-22T15:02:18.575Z,46.41
2018-06-22T15:04:52.812Z,45.85
2018-06-22T15:07:26.974Z,44.96
2018-06-22T15:09:55.582Z,44.19
2018-06-22T15:12:24.214Z,43.82
2018-06-22T15:14:52.887Z,43.55
2018-06-22T15:17:22.263Z,41.63
2018-06-22T15:19:50.789Z,40.73
2018-06-22T15:22:19.455Z,40.50
2018-06-22T15:24:48.143Z,40.74
2018-06-22T15:27:16.825Z,41.55
2018-06-22T15:29:45.445Z,41.84
2018-06-22T15:32:14.194Z,42.99
2018-06-22T15:34:48.626Z,44.63
2018-06-22T15:37:22.788Z,46.37
2018-06-22T15:40:55.874Z,46.53
2018-06-22T15:43:29.981Z,46.08
2018-06-22T15:46:04.327Z,45.84
2018-06-22T15:48:45.735Z,46.11
2018-06-22T15:51:20.006Z,46.91
2018-06-22T15:53:54.187Z,46.74
2018-06-22T15:56:23.651Z,46.36
2018-06-22T15:58:52.455Z,46.31
2018-06-22T16:01:21.273Z,46.42
2018-06-22T16:03:55.541Z,45.89
2018-06-22T16:06:24.435Z,43.83
2018-06-22T16:08:53.328Z,45.26
2018-06-22T16:11:26.120Z,46.01
2018-06-22T16:14:00.561Z,47.04
2018-06-22T16:16:35.305Z,47.10
2018-06-22T16:19:09.422Z,47.30
2018-06-22T16:21:43.419Z,44.85
2018-06-22T16:24:17.607Z,45.65
2018-06-22T16:26:51.917Z,46.06
2018-06-22T16:29:20.373Z,45.53
2018-06-22T16:31:48.998Z,47.37
2018-06-22T16:34:17.437Z,46.28
2018-06-22T16:36:47.640Z,46.47
2018-06-22T16:39:16.329Z,47.06
2018-06-22T16:41:44.904Z,47.15
2018-06-22T16:44:13.705Z,46.55
2018-06-22T16:46:42.353Z,45.70
2018-06-22T16:49:11.204Z,46.94
2018-06-22T16:51:41.954Z,47.73
2018-06-22T16:54:10.339Z,47.55
2018-06-22T16:56:38.964Z,46.61
2018-06-22T16:59:07.614Z,47.31
2018-06-22T17:01:35.923Z,48.85
2018-06-22T17:04:04.640Z,49.97
2018-06-22T17:06:38.960Z,50.98
2018-06-22T17:09:14.194Z,50.40
2018-06-22T17:11:48.387Z,50.46
2018-06-22T17:14:22.712Z,50.99
2018-06-22T17:16:56.905Z,51.80
2018-06-22T17:19:25.547Z,51.27
2018-06-22T17:21:54.123Z,51.74
2018-06-22T17:24:22.840Z,51.58
2018-06-22T17:26:51.166Z,51.58
2018-06-22T17:29:19.571Z,50.61
2018-06-22T17:31:48.452Z,51.13
2018-06-22T17:34:19.565Z,51.96
2018-06-22T17:36:48.362Z,51.46
2018-06-22T17:39:17.120Z,52.11
2018-06-22T17:41:45.987Z,52.65
2018-06-22T17:44:14.326Z,52.15
2018-06-22T17:46:42.903Z,51.14
2018-06-22T17:49:11.499Z,51.60
2018-06-22T17:51:40.956Z,52.37
2018-06-22T17:54:09.761Z,52.34
2018-06-22T17:56:38.589Z,53.58
2018-06-22T17:59:12.694Z,53.54
2018-06-22T18:02:45.863Z,53.21
2018-06-22T18:05:20.081Z,53.10
2018-06-22T18:07:49.205Z,53.03
2018-06-22T18:10:23.396Z,52.66
2018-06-22T18:12:54.796Z,53.61
2018-06-22T18:15:23.439Z,52.92
2018-06-22T18:17:52.062Z,53.38
2018-06-22T18:20:20.859Z,54.43
2018-06-22T18:22:49.538Z,53.55
2018-06-22T18:25:18.322Z,54.61
2018-06-22T18:27:47.004Z,53.86
2018-06-22T18:30:16.227Z,54.58
2018-06-22T18:32:44.788Z,54.95
2018-06-22T18:35:14.693Z,55.30
2018-06-22T18:37:43.470Z,55.06
2018-06-22T18:40:12.334Z,55.33
2018-06-22T18:42:40.865Z,54.82
2018-06-22T18:45:11.416Z,55.44
2018-06-22T18:47:40.665Z,55.26
2018-06-22T18:50:09.508Z,55.39
2018-06-22T18:52:43.486Z,55.35
2018-06-22T18:57:45.764Z,55.13
2018-06-22T19:00:20.099Z,54.90
2018-06-22T19:02:54.584Z,55.22
2018-06-22T19:05:23.457Z,54.60
2018-06-22T19:07:52.029Z,54.91
2018-06-22T19:10:20.608Z,55.18
2018-06-22T19:12:49.113Z,55.89
2018-06-22T19:15:22.780Z,55.56
2018-06-22T19:17:51.457Z,55.17
2018-06-22T19:20:19.955Z,56.12
2018-06-22T19:22:48.329Z,55.75
2018-06-22T19:25:16.857Z,55.98
2018-06-22T19:27:45.419Z,55.98
2018-06-22T19:30:14.292Z,56.44
2018-06-22T19:32:43.455Z,55.85
2018-06-22T19:35:13.548Z,56.24
2018-06-22T19:37:43.639Z,57.34
2018-06-22T19:40:12.493Z,57.81
2018-06-22T19:42:41.218Z,57.80
2018-06-22T19:45:15.233Z,57.36
2018-06-22T19:47:49.648Z,57.70
2018-06-22T19:51:26.690Z,58.19
2018-06-22T19:53:58.255Z,58.69
2018-06-22T19:56:27.015Z,58.49
2018-06-22T19:58:55.767Z,58.47
2018-06-22T20:01:24.369Z,58.26
2018-06-22T20:03:53.003Z,59.06
2018-06-22T20:06:21.769Z,59.43
2018-06-22T20:08:50.357Z,59.22
2018-06-22T20:11:18.980Z,59.76
2018-06-22T20:13:47.619Z,59.65
2018-06-22T20:16:16.394Z,59.37
2018-06-22T20:18:45.143Z,59.05
2018-06-22T20:21:13.690Z,59.48
2018-06-22T20:23:42.185Z,58.70
2018-06-22T20:26:10.987Z,58.88
2018-06-22T20:28:39.581Z,59.02
2018-06-22T20:31:08.353Z,59.09
2018-06-22T20:33:36.890Z,58.94
2018-06-22T20:36:11.279Z,58.66
2018-06-22T20:38:45.507Z,58.72
2018-06-22T20:41:19.356Z,59.49
2018-06-22T20:43:53.485Z,59.38
2018-06-22T20:46:27.620Z,59.64
2018-06-22T20:51:09.044Z,59.43
2018-06-22T20:53:37.373Z,60.38
2018-06-22T20:56:05.875Z,60.43
2018-06-22T20:58:34.768Z,60.31
2018-06-22T21:01:03.512Z,59.92
2018-06-22T21:03:32.040Z,60.37
2018-06-22T21:06:00.922Z,61.16
2018-06-22T21:08:29.473Z,61.32
2018-06-22T21:10:58.340Z,61.05
2018-06-22T21:13:26.979Z,61.25
2018-06-22T21:15:55.732Z,61.70
2018-06-22T21:18:24.293Z,62.00
2018-06-22T21:20:58.265Z,62.03
2018-06-22T21:23:26.906Z,61.76
2018-06-22T21:25:55.525Z,62.80
2018-06-22T21:29:33.759Z,61.94
2018-06-22T21:32:07.941Z,62.37
2018-06-22T21:34:40.981Z,62.54
2018-06-22T21:37:15.301Z,61.99
2018-06-22T21:39:43.532Z,63.03
2018-06-22T21:42:12.083Z,62.73
2018-06-22T21:44:40.794Z,63.49
2018-06-22T21:47:09.515Z,62.38
2018-06-22T21:49:38.194Z,62.87
2018-06-22T21:52:07.015Z,63.30
2018-06-22T21:54:35.670Z,62.65
2018-06-22T21:57:04.440Z,62.17
2018-06-22T21:59:32.950Z,62.65
2018-06-22T22:02:01.467Z,62.47
2018-06-22T22:04:42.503Z,62.29
2018-06-22T22:07:12.381Z,62.80
2018-06-22T22:09:43.022Z,62.96
2018-06-22T22:12:13.012Z,62.19
2018-06-22T22:14:42.928Z,62.40
2018-06-22T22:17:12.077Z,62.97
2018-06-22T22:19:41.834Z,62.55
2018-06-22T22:22:11.788Z,62.45
2018-06-22T22:24:41.380Z,62.78
2018-06-22T22:27:11.438Z,62.45
2018-06-22T22:29:41.311Z,62.29
2018-06-22T22:32:11.287Z,62.84
2018-06-22T22:34:41.618Z,62.01
2018-06-22T22:37:11.528Z,62.59
2018-06-22T22:39:41.989Z,62.40
2018-06-22T22:42:13.265Z,62.02
2018-06-22T22:44:44.136Z,62.14
2018-06-22T22:47:14.081Z,62.37
2018-06-22T22:49:44.430Z,62.30
2018-06-22T22:52:14.965Z,62.91
2018-06-22T22:54:44.861Z,62.03
2018-06-22T22:57:14.981Z,62.66
2018-06-22T22:59:44.571Z,62.72
2018-06-22T23:02:14.180Z,61.95
2018-06-22T23:04:43.800Z,61.75
2018-06-22T23:07:12.611Z,62.23
2018-06-22T23:09:41.622Z,62.22
2018-06-22T23:12:10.581Z,62.15
2018-06-22T23:14:39.348Z,62.76
2018-06-22T23:17:10.300Z,63.21
2018-06-22T23:19:40.260Z,63.32
2018-06-22T23:22:10.199Z,63.17
2018-06-22T23:24:42.720Z,63.41
2018-06-22T23:27:11.512Z,62.99
2018-06-22T23:29:40.900Z,64.04
2018-06-22T23:32:09.792Z,63.91
2018-06-22T23:34:39.093Z,63.97
2018-06-22T23:37:17.191Z,64.28
2018-06-22T23:40:08.972Z,63.50
2018-06-22T23:42:41.102Z,64.64
2018-06-22T23:45:10.301Z,64.85
2018-06-22T23:48:04.443Z,64.21
2018-06-22T23:50:33.564Z,64.58
2018-06-22T23:53:02.481Z,64.38
2018-06-22T23:55:32.724Z,65.02
2018-06-22T23:58:01.586Z,65.22
